sensor_id;sensor_type;location;lat;lon;timestamp;pressure;altitude;pressure_sealevel;temperature;humidity
28000;BME280;15328;50.860;10.562;2023-03-22T00:00:57;96180.00;;;9.20;65.20
28000;BME280;15328;50.860;10.562;2023-03-22T00:05:57;96179.78;;;9.22;64.89
28000;BME280;15328;50.860;10.562;2023-03-22T00:10:58;96185.00;;;9.04;66.21
28000;BME280;15328;50.860;10.562;2023-03-22T00:15:58;96178.28;;;9.01;66.31
28000;BME280;15328;50.860;10.562;2023-03-22T00:21:01;96169.50;;;9.07;66.18
28000;BME280;15328;50.860;10.562;2023-03-22T00:26:02;96172.06;;;8.89;66.89
28000;BME280;15328;50.860;10.562;2023-03-22T00:31:03;96171.72;;;8.72;68.11
28000;BME280;15328;50.860;10.562;2023-03-22T00:36:09;96163.84;;;8.97;67.32
28000;BME280;15328;50.860;10.562;2023-03-22T00:41:11;96159.75;;;8.63;68.81
28000;BME280;15328;50.860;10.562;2023-03-22T00:46:13;96168.47;;;8.70;68.21
28000;BME280;15328;50.860;10.562;2023-03-22T00:51:14;96161.94;;;8.73;67.92
28000;BME280;15328;50.860;10.562;2023-03-22T00:56:15;96158.47;;;8.79;67.76
28000;BME280;15328;50.860;10.562;2023-03-22T01:01:15;96161.34;;;8.71;68.38
28000;BME280;15328;50.860;10.562;2023-03-22T01:06:16;96167.22;;;8.79;67.92
28000;BME280;15328;50.860;10.562;2023-03-22T01:11:17;96163.94;;;8.84;67.82
28000;BME280;15328;50.860;10.562;2023-03-22T01:16:17;96166.81;;;8.76;67.74
28000;BME280;15328;50.860;10.562;2023-03-22T01:21:18;96164.00;;;8.71;68.58
28000;BME280;15328;50.860;10.562;2023-03-22T01:26:18;96160.91;;;8.74;68.81
28000;BME280;15328;50.860;10.562;2023-03-22T01:31:19;96153.03;;;8.60;69.18
28000;BME280;15328;50.860;10.562;2023-03-22T01:36:19;96153.56;;;8.76;68.46
28000;BME280;15328;50.860;10.562;2023-03-22T01:41:20;96152.75;;;8.75;68.39
28000;BME280;15328;50.860;10.562;2023-03-22T01:46:20;96136.28;;;8.66;68.88
28000;BME280;15328;50.860;10.562;2023-03-22T01:51:23;96126.75;;;8.59;69.46
28000;BME280;15328;50.860;10.562;2023-03-22T01:56:27;96121.81;;;8.62;69.56
28000;BME280;15328;50.860;10.562;2023-03-22T02:01:30;96114.84;;;8.68;69.40
28000;BME280;15328;50.860;10.562;2023-03-22T02:06:33;96126.69;;;8.65;69.32
28000;BME280;15328;50.860;10.562;2023-03-22T02:11:42;96115.69;;;8.62;69.76
28000;BME280;15328;50.860;10.562;2023-03-22T02:27:22;96114.19;;;8.73;69.30
28000;BME280;15328;50.860;10.562;2023-03-22T02:43:32;96102.19;;;8.70;69.17
28000;BME280;15328;50.860;10.562;2023-03-22T02:53:44;96097.09;;;8.68;69.23
28000;BME280;15328;50.860;10.562;2023-03-22T02:58:50;96093.41;;;8.31;70.76
28000;BME280;15328;50.860;10.562;2023-03-22T03:03:56;96085.56;;;8.56;69.71
28000;BME280;15328;50.860;10.562;2023-03-22T03:08:59;96080.25;;;8.56;69.59
28000;BME280;15328;50.860;10.562;2023-03-22T03:14:03;96080.81;;;8.65;69.60
28000;BME280;15328;50.860;10.562;2023-03-22T03:20:04;96071.16;;;8.71;69.07
28000;BME280;15328;50.860;10.562;2023-03-22T03:25:26;96081.44;;;8.60;69.18
28000;BME280;15328;50.860;10.562;2023-03-22T03:30:38;96082.00;;;8.69;69.10
28000;BME280;15328;50.860;10.562;2023-03-22T03:35:49;96090.25;;;8.54;69.47
28000;BME280;15328;50.860;10.562;2023-03-22T03:41:01;96081.41;;;8.67;69.25
28000;BME280;15328;50.860;10.562;2023-03-22T03:46:04;96092.44;;;8.64;69.44
28000;BME280;15328;50.860;10.562;2023-03-22T03:51:05;96081.19;;;8.68;69.30
28000;BME280;15328;50.860;10.562;2023-03-22T03:56:06;96072.19;;;8.70;69.10
28000;BME280;15328;50.860;10.562;2023-03-22T04:01:07;96064.47;;;8.68;69.30
28000;BME280;15328;50.860;10.562;2023-03-22T04:06:07;96067.88;;;8.75;69.18
28000;BME280;15328;50.860;10.562;2023-03-22T04:11:08;96073.59;;;8.79;69.33
28000;BME280;15328;50.860;10.562;2023-03-22T04:16:08;96068.06;;;8.80;69.26
28000;BME280;15328;50.860;10.562;2023-03-22T04:21:08;96079.66;;;8.86;68.84
28000;BME280;15328;50.860;10.562;2023-03-22T04:26:11;96064.91;;;8.90;68.88
28000;BME280;15328;50.860;10.562;2023-03-22T04:31:11;96062.00;;;8.98;68.50
28000;BME280;15328;50.860;10.562;2023-03-22T04:36:13;96039.44;;;8.89;68.32
28000;BME280;15328;50.860;10.562;2023-03-22T04:41:17;96040.63;;;8.93;68.36
28000;BME280;15328;50.860;10.562;2023-03-22T04:46:17;96027.34;;;8.93;68.32
28000;BME280;15328;50.860;10.562;2023-03-22T04:51:20;96021.97;;;8.99;68.02
28000;BME280;15328;50.860;10.562;2023-03-22T04:56:21;96022.03;;;8.93;68.08
28000;BME280;15328;50.860;10.562;2023-03-22T05:01:21;96023.88;;;8.92;68.16
28000;BME280;15328;50.860;10.562;2023-03-22T05:06:21;96014.09;;;8.93;68.19
28000;BME280;15328;50.860;10.562;2023-03-22T05:11:22;96014.69;;;8.95;67.97
28000;BME280;15328;50.860;10.562;2023-03-22T05:16:23;96011.22;;;8.94;68.43
28000;BME280;15328;50.860;10.562;2023-03-22T05:21:24;95996.47;;;8.98;67.87
28000;BME280;15328;50.860;10.562;2023-03-22T05:26:27;96006.28;;;8.98;67.75
28000;BME280;15328;50.860;10.562;2023-03-22T05:31:27;96013.28;;;8.92;67.45
28000;BME280;15328;50.860;10.562;2023-03-22T05:36:27;96014.09;;;8.93;67.94
28000;BME280;15328;50.860;10.562;2023-03-22T05:41:30;96014.09;;;8.93;67.79
28000;BME280;15328;50.860;10.562;2023-03-22T05:46:32;96019.59;;;8.91;67.63
28000;BME280;15328;50.860;10.562;2023-03-22T05:51:33;96010.75;;;9.04;67.69
28000;BME280;15328;50.860;10.562;2023-03-22T05:56:40;96024.59;;;9.06;67.52
28000;BME280;15328;50.860;10.562;2023-03-22T06:01:40;96018.50;;;8.99;67.74
28000;BME280;15328;50.860;10.562;2023-03-22T06:06:41;96031.34;;;9.02;67.73
28000;BME280;15328;50.860;10.562;2023-03-22T06:11:41;96024.19;;;9.03;67.62
28000;BME280;15328;50.860;10.562;2023-03-22T06:16:41;96018.56;;;9.17;67.12
28000;BME280;15328;50.860;10.562;2023-03-22T06:21:42;96026.00;;;9.27;66.45
28000;BME280;15328;50.860;10.562;2023-03-22T06:26:42;96027.53;;;9.41;66.58
28000;BME280;15328;50.860;10.562;2023-03-22T06:31:42;96027.75;;;9.40;66.60
28000;BME280;15328;50.860;10.562;2023-03-22T06:36:43;96033.94;;;9.52;66.65
28000;BME280;15328;50.860;10.562;2023-03-22T06:41:43;96043.97;;;9.68;66.14
28000;BME280;15328;50.860;10.562;2023-03-22T06:46:43;96049.22;;;9.75;65.79
28000;BME280;15328;50.860;10.562;2023-03-22T06:51:44;96047.06;;;9.83;66.24
28000;BME280;15328;50.860;10.562;2023-03-22T06:56:45;96039.09;;;9.83;65.35
28000;BME280;15328;50.860;10.562;2023-03-22T07:01:45;96039.50;;;9.87;65.27
28000;BME280;15328;50.860;10.562;2023-03-22T07:06:46;96042.06;;;9.94;65.16
28000;BME280;15328;50.860;10.562;2023-03-22T07:11:46;96046.19;;;9.89;65.20
28000;BME280;15328;50.860;10.562;2023-03-22T07:16:46;96045.47;;;10.12;64.91
28000;BME280;15328;50.860;10.562;2023-03-22T07:21:47;96039.00;;;10.27;64.79
28000;BME280;15328;50.860;10.562;2023-03-22T07:26:47;96035.28;;;10.46;64.56
28000;BME280;15328;50.860;10.562;2023-03-22T07:31:47;96028.19;;;10.70;64.08
28000;BME280;15328;50.860;10.562;2023-03-22T07:36:48;96028.41;;;10.80;63.26
28000;BME280;15328;50.860;10.562;2023-03-22T07:41:48;96024.50;;;10.94;63.25
28000;BME280;15328;50.860;10.562;2023-03-22T07:46:49;96026.09;;;10.95;62.17
28000;BME280;15328;50.860;10.562;2023-03-22T07:51:51;96019.19;;;11.06;62.26
28000;BME280;15328;50.860;10.562;2023-03-22T07:56:51;96015.25;;;11.08;61.69
28000;BME280;15328;50.860;10.562;2023-03-22T08:01:52;96007.75;;;11.05;61.08
28000;BME280;15328;50.860;10.562;2023-03-22T08:06:52;96012.25;;;11.05;60.98
28000;BME280;15328;50.860;10.562;2023-03-22T08:11:59;96018.16;;;11.19;61.51
28000;BME280;15328;50.860;10.562;2023-03-22T08:16:59;96012.81;;;11.42;60.95
28000;BME280;15328;50.860;10.562;2023-03-22T08:22:00;95995.88;;;11.71;61.25
28000;BME280;15328;50.860;10.562;2023-03-22T08:27:01;96003.88;;;11.83;59.97
28000;BME280;15328;50.860;10.562;2023-03-22T08:32:01;96002.91;;;11.77;59.14
28000;BME280;15328;50.860;10.562;2023-03-22T08:37:04;95982.81;;;12.10;59.66
28000;BME280;15328;50.860;10.562;2023-03-22T08:42:05;95998.25;;;12.36;59.64
28000;BME280;15328;50.860;10.562;2023-03-22T08:47:06;95975.94;;;12.59;57.59
28000;BME280;15328;50.860;10.562;2023-03-22T08:52:06;95969.91;;;12.81;57.77
28000;BME280;15328;50.860;10.562;2023-03-22T08:57:07;95960.50;;;13.12;56.20
28000;BME280;15328;50.860;10.562;2023-03-22T09:02:11;95944.22;;;13.47;55.65
28000;BME280;15328;50.860;10.562;2023-03-22T09:07:11;95949.53;;;13.90;54.37
28000;BME280;15328;50.860;10.562;2023-03-22T09:12:12;95947.06;;;14.33;53.45
28000;BME280;15328;50.860;10.562;2023-03-22T09:17:12;95946.81;;;15.35;51.61
28000;BME280;15328;50.860;10.562;2023-03-22T09:22:13;95930.91;;;16.89;47.46
28000;BME280;15328;50.860;10.562;2023-03-22T09:27:13;95940.59;;;18.06;44.32
28000;BME280;15328;50.860;10.562;2023-03-22T09:32:15;95939.94;;;18.73;42.60
28000;BME280;15328;50.860;10.562;2023-03-22T09:37:15;95943.66;;;19.11;40.44
28000;BME280;15328;50.860;10.562;2023-03-22T09:42:28;95940.31;;;19.54;40.34
28000;BME280;15328;50.860;10.562;2023-03-22T09:47:37;95939.09;;;20.13;38.30
28000;BME280;15328;50.860;10.562;2023-03-22T09:52:39;95934.50;;;20.13;37.17
28000;BME280;15328;50.860;10.562;2023-03-22T09:57:40;95929.53;;;20.01;36.35
28000;BME280;15328;50.860;10.562;2023-03-22T10:13:04;95923.56;;;18.60;39.65
28000;BME280;15328;50.860;10.562;2023-03-22T10:18:10;95916.38;;;18.50;39.04
28000;BME280;15328;50.860;10.562;2023-03-22T10:23:16;95915.38;;;17.91;40.11
28000;BME280;15328;50.860;10.562;2023-03-22T10:28:21;95912.00;;;17.45;40.23
28000;BME280;15328;50.860;10.562;2023-03-22T10:38:29;95933.81;;;16.32;41.59
28000;BME280;15328;50.860;10.562;2023-03-22T10:43:38;95900.56;;;16.48;41.68
28000;BME280;15328;50.860;10.562;2023-03-22T10:48:43;95925.47;;;16.23;41.06
28000;BME280;15328;50.860;10.562;2023-03-22T10:53:46;95915.25;;;16.15;41.47
28000;BME280;15328;50.860;10.562;2023-03-22T10:58:49;95905.75;;;15.72;42.84
28000;BME280;15328;50.860;10.562;2023-03-22T11:03:51;95902.03;;;15.31;44.66
28000;BME280;15328;50.860;10.562;2023-03-22T11:08:57;95896.16;;;15.34;45.16
28000;BME280;15328;50.860;10.562;2023-03-22T11:14:06;95899.69;;;14.97;45.75
28000;BME280;15328;50.860;10.562;2023-03-22T11:19:14;95881.72;;;14.93;46.45
28000;BME280;15328;50.860;10.562;2023-03-22T11:24:17;95886.06;;;15.04;46.01
28000;BME280;15328;50.860;10.562;2023-03-22T11:29:18;95883.22;;;15.21;46.17
28000;BME280;15328;50.860;10.562;2023-03-22T11:34:20;95872.28;;;15.27;45.36
28000;BME280;15328;50.860;10.562;2023-03-22T11:39:23;95857.59;;;16.23;44.73
28000;BME280;15328;50.860;10.562;2023-03-22T11:44:26;95854.91;;;16.63;42.29
28000;BME280;15328;50.860;10.562;2023-03-22T11:49:37;95858.59;;;17.18;42.12
28000;BME280;15328;50.860;10.562;2023-03-22T11:54:39;95847.88;;;17.88;40.74
28000;BME280;15328;50.860;10.562;2023-03-22T11:59:54;95854.88;;;18.67;37.38
28000;BME280;15328;50.860;10.562;2023-03-22T12:05:03;95854.22;;;19.33;35.59
28000;BME280;15328;50.860;10.562;2023-03-22T12:10:13;95854.66;;;19.88;34.41
28000;BME280;15328;50.860;10.562;2023-03-22T12:15:21;95846.25;;;20.65;33.03
28000;BME280;15328;50.860;10.562;2023-03-22T12:20:38;95854.97;;;21.22;31.79
28000;BME280;15328;50.860;10.562;2023-03-22T12:25:50;95841.28;;;21.73;31.26
28000;BME280;15328;50.860;10.562;2023-03-22T12:30:54;95842.38;;;21.31;29.87
28000;BME280;15328;50.860;10.562;2023-03-22T12:36:01;95825.47;;;21.39;29.24
28000;BME280;15328;50.860;10.562;2023-03-22T12:41:06;95832.66;;;21.71;29.68
28000;BME280;15328;50.860;10.562;2023-03-22T12:46:16;95833.78;;;21.70;29.21
28000;BME280;15328;50.860;10.562;2023-03-22T12:51:17;95823.75;;;21.57;28.87
28000;BME280;15328;50.860;10.562;2023-03-22T12:56:21;95822.94;;;21.56;29.19
28000;BME280;15328;50.860;10.562;2023-03-22T13:01:27;95823.06;;;21.38;29.56
28000;BME280;15328;50.860;10.562;2023-03-22T13:11:34;95790.84;;;20.95;29.41
28000;BME280;15328;50.860;10.562;2023-03-22T13:17:00;95818.19;;;20.93;29.35
28000;BME280;15328;50.860;10.562;2023-03-22T13:27:56;95801.88;;;20.33;29.64
28000;BME280;15328;50.860;10.562;2023-03-22T13:32:59;95793.19;;;20.55;30.25
28000;BME280;15328;50.860;10.562;2023-03-22T13:38:08;95811.53;;;20.72;30.27
28000;BME280;15328;50.860;10.562;2023-03-22T13:43:23;95819.91;;;20.57;29.90
28000;BME280;15328;50.860;10.562;2023-03-22T13:59:00;95806.38;;;19.20;31.05
28000;BME280;15328;50.860;10.562;2023-03-22T14:04:07;95778.66;;;19.14;30.97
28000;BME280;15328;50.860;10.562;2023-03-22T14:09:17;95791.59;;;19.18;31.77
28000;BME280;15328;50.860;10.562;2023-03-22T14:14:27;95796.22;;;19.12;30.94
28000;BME280;15328;50.860;10.562;2023-03-22T14:19:31;95788.94;;;19.12;31.24
28000;BME280;15328;50.860;10.562;2023-03-22T14:24:34;95795.91;;;18.66;32.10
28000;BME280;15328;50.860;10.562;2023-03-22T14:29:46;95783.00;;;18.58;32.04
28000;BME280;15328;50.860;10.562;2023-03-22T14:34:52;95781.03;;;18.34;32.27
28000;BME280;15328;50.860;10.562;2023-03-22T14:39:56;95785.31;;;18.06;32.12
28000;BME280;15328;50.860;10.562;2023-03-22T14:45:02;95795.34;;;17.96;33.25
28000;BME280;15328;50.860;10.562;2023-03-22T14:50:08;95781.97;;;17.80;33.71
28000;BME280;15328;50.860;10.562;2023-03-22T14:55:16;95785.66;;;17.45;34.37
28000;BME280;15328;50.860;10.562;2023-03-22T15:00:19;95777.13;;;17.33;34.98
28000;BME280;15328;50.860;10.562;2023-03-22T15:05:26;95772.38;;;17.10;35.06
28000;BME280;15328;50.860;10.562;2023-03-22T15:10:28;95763.59;;;16.84;35.42
28000;BME280;15328;50.860;10.562;2023-03-22T15:15:31;95763.09;;;16.66;36.63
28000;BME280;15328;50.860;10.562;2023-03-22T15:20:35;95769.56;;;16.50;36.29
28000;BME280;15328;50.860;10.562;2023-03-22T15:25:36;95753.44;;;16.55;36.98
28000;BME280;15328;50.860;10.562;2023-03-22T15:30:43;95757.19;;;16.54;36.69
28000;BME280;15328;50.860;10.562;2023-03-22T15:35:45;95752.38;;;16.46;37.02
28000;BME280;15328;50.860;10.562;2023-03-22T15:40:47;95755.28;;;16.60;37.31
28000;BME280;15328;50.860;10.562;2023-03-22T15:51:16;95762.56;;;16.49;37.32
28000;BME280;15328;50.860;10.562;2023-03-22T15:56:29;95763.09;;;16.51;37.77
28000;BME280;15328;50.860;10.562;2023-03-22T16:01:40;95762.56;;;16.39;37.80
28000;BME280;15328;50.860;10.562;2023-03-22T16:06:42;95768.50;;;16.31;37.99
28000;BME280;15328;50.860;10.562;2023-03-22T16:11:44;95766.63;;;16.16;38.44
28000;BME280;15328;50.860;10.562;2023-03-22T16:16:46;95772.25;;;16.10;38.34
28000;BME280;15328;50.860;10.562;2023-03-22T16:21:47;95772.50;;;15.88;39.52
28000;BME280;15328;50.860;10.562;2023-03-22T16:26:47;95771.16;;;15.85;39.84
28000;BME280;15328;50.860;10.562;2023-03-22T16:31:48;95774.63;;;15.81;39.92
28000;BME280;15328;50.860;10.562;2023-03-22T16:36:48;95781.88;;;15.70;40.38
28000;BME280;15328;50.860;10.562;2023-03-22T16:41:49;95776.78;;;15.68;40.72
28000;BME280;15328;50.860;10.562;2023-03-22T16:46:49;95789.88;;;15.60;40.94
28000;BME280;15328;50.860;10.562;2023-03-22T16:51:50;95793.03;;;15.46;40.62
28000;BME280;15328;50.860;10.562;2023-03-22T16:56:50;95793.03;;;15.41;40.77
28000;BME280;15328;50.860;10.562;2023-03-22T17:01:51;95796.50;;;15.42;40.89
28000;BME280;15328;50.860;10.562;2023-03-22T17:06:51;95793.81;;;15.37;41.31
28000;BME280;15328;50.860;10.562;2023-03-22T17:11:52;95794.59;;;15.32;41.25
28000;BME280;15328;50.860;10.562;2023-03-22T17:16:52;95794.56;;;15.27;41.75
28000;BME280;15328;50.860;10.562;2023-03-22T17:21:52;95796.69;;;15.20;41.84
28000;BME280;15328;50.860;10.562;2023-03-22T17:26:53;95788.66;;;15.15;42.21
28000;BME280;15328;50.860;10.562;2023-03-22T17:31:54;95764.53;;;15.10;42.31
28000;BME280;15328;50.860;10.562;2023-03-22T17:36:55;95775.69;;;14.97;42.96
28000;BME280;15328;50.860;10.562;2023-03-22T17:41:55;95777.53;;;14.86;43.60
28000;BME280;15328;50.860;10.562;2023-03-22T17:46:56;95782.56;;;14.77;43.67
28000;BME280;15328;50.860;10.562;2023-03-22T17:51:59;95778.44;;;14.60;43.80
28000;BME280;15328;50.860;10.562;2023-03-22T17:57:00;95788.66;;;14.68;43.77
28000;BME280;15328;50.860;10.562;2023-03-22T18:02:01;95789.41;;;14.58;44.65
28000;BME280;15328;50.860;10.562;2023-03-22T18:07:01;95798.50;;;14.57;44.81
28000;BME280;15328;50.860;10.562;2023-03-22T18:12:02;95792.63;;;14.55;43.65
28000;BME280;15328;50.860;10.562;2023-03-22T18:17:02;95793.94;;;14.52;43.79
28000;BME280;15328;50.860;10.562;2023-03-22T18:22:02;95801.72;;;14.54;43.32
28000;BME280;15328;50.860;10.562;2023-03-22T18:27:03;95807.53;;;14.46;43.35
28000;BME280;15328;50.860;10.562;2023-03-22T18:32:04;95815.28;;;14.47;41.22
28000;BME280;15328;50.860;10.562;2023-03-22T18:37:04;95792.00;;;14.48;41.81
28000;BME280;15328;50.860;10.562;2023-03-22T18:42:07;95785.59;;;14.49;40.53
28000;BME280;15328;50.860;10.562;2023-03-22T18:47:08;95780.56;;;14.52;39.60
28000;BME280;15328;50.860;10.562;2023-03-22T18:52:14;95801.19;;;14.57;39.64
28000;BME280;15328;50.860;10.562;2023-03-22T18:57:15;95794.53;;;14.65;38.79
28000;BME280;15328;50.860;10.562;2023-03-22T19:02:15;95796.41;;;14.64;39.01
28000;BME280;15328;50.860;10.562;2023-03-22T19:07:16;95799.59;;;14.61;39.04
28000;BME280;15328;50.860;10.562;2023-03-22T19:12:17;95807.09;;;14.59;39.46
28000;BME280;15328;50.860;10.562;2023-03-22T19:17:17;95790.53;;;14.67;39.34
28000;BME280;15328;50.860;10.562;2023-03-22T19:22:18;95778.72;;;14.58;39.58
28000;BME280;15328;50.860;10.562;2023-03-22T19:27:19;95772.28;;;14.59;39.92
28000;BME280;15328;50.860;10.562;2023-03-22T19:32:19;95761.84;;;14.58;40.01
28000;BME280;15328;50.860;10.562;2023-03-22T19:37:20;95768.78;;;14.53;39.39
28000;BME280;15328;50.860;10.562;2023-03-22T19:42:20;95755.66;;;14.52;39.69
28000;BME280;15328;50.860;10.562;2023-03-22T19:47:21;95759.63;;;14.44;39.65
28000;BME280;15328;50.860;10.562;2023-03-22T19:52:21;95753.00;;;14.52;38.26
28000;BME280;15328;50.860;10.562;2023-03-22T19:57:24;95766.56;;;14.45;38.39
28000;BME280;15328;50.860;10.562;2023-03-22T20:02:25;95759.63;;;14.49;37.65
28000;BME280;15328;50.860;10.562;2023-03-22T20:07:25;95771.13;;;14.45;38.41
28000;BME280;15328;50.860;10.562;2023-03-22T20:12:26;95757.75;;;14.45;38.69
28000;BME280;15328;50.860;10.562;2023-03-22T20:17:27;95751.31;;;14.46;38.27
28000;BME280;15328;50.860;10.562;2023-03-22T20:22:27;95724.97;;;14.28;38.09
28000;BME280;15328;50.860;10.562;2023-03-22T20:27:27;95709.78;;;14.38;38.11
28000;BME280;15328;50.860;10.562;2023-03-22T20:32:28;95708.44;;;14.36;38.25
28000;BME280;15328;50.860;10.562;2023-03-22T20:37:28;95722.59;;;14.31;38.44
28000;BME280;15328;50.860;10.562;2023-03-22T20:42:29;95697.97;;;14.29;38.59
28000;BME280;15328;50.860;10.562;2023-03-22T20:47:30;95695.59;;;14.33;38.82
28000;BME280;15328;50.860;10.562;2023-03-22T20:52:30;95695.59;;;14.33;38.79
28000;BME280;15328;50.860;10.562;2023-03-22T20:57:30;95700.94;;;14.33;38.70
28000;BME280;15328;50.860;10.562;2023-03-22T21:02:31;95674.91;;;14.23;39.27
28000;BME280;15328;50.860;10.562;2023-03-22T21:07:31;95679.97;;;14.19;39.40
28000;BME280;15328;50.860;10.562;2023-03-22T21:12:32;95685.13;;;14.26;39.58
28000;BME280;15328;50.860;10.562;2023-03-22T21:17:32;95691.53;;;14.25;39.69
28000;BME280;15328;50.860;10.562;2023-03-22T21:22:33;95679.94;;;14.14;39.79
28000;BME280;15328;50.860;10.562;2023-03-22T21:27:33;95696.50;;;14.11;39.76
28000;BME280;15328;50.860;10.562;2023-03-22T21:32:34;95672.94;;;14.03;40.08
28000;BME280;15328;50.860;10.562;2023-03-22T21:37:36;95664.69;;;14.15;39.77
28000;BME280;15328;50.860;10.562;2023-03-22T21:42:36;95675.59;;;14.03;39.31
28000;BME280;15328;50.860;10.562;2023-03-22T21:47:36;95672.13;;;14.03;39.69
28000;BME280;15328;50.860;10.562;2023-03-22T21:52:37;95671.91;;;14.09;39.85
28000;BME280;15328;50.860;10.562;2023-03-22T21:57:37;95680.44;;;14.06;39.66
28000;BME280;15328;50.860;10.562;2023-03-22T22:02:37;95682.88;;;14.13;39.90
28000;BME280;15328;50.860;10.562;2023-03-22T22:07:38;95673.47;;;14.05;40.09
28000;BME280;15328;50.860;10.562;2023-03-22T22:12:38;95691.28;;;13.89;40.32
28000;BME280;15328;50.860;10.562;2023-03-22T22:17:38;95691.56;;;13.93;40.09
28000;BME280;15328;50.860;10.562;2023-03-22T22:22:41;95688.63;;;13.95;40.90
28000;BME280;15328;50.860;10.562;2023-03-22T22:27:43;95698.88;;;14.03;40.45
28000;BME280;15328;50.860;10.562;2023-03-22T22:32:43;95686.81;;;14.00;40.37
28000;BME280;15328;50.860;10.562;2023-03-22T22:37:44;95688.94;;;13.98;39.87
28000;BME280;15328;50.860;10.562;2023-03-22T22:42:45;95688.34;;;13.91;40.65
28000;BME280;15328;50.860;10.562;2023-03-22T22:47:45;95688.13;;;13.98;40.30
28000;BME280;15328;50.860;10.562;2023-03-22T22:52:45;95677.09;;;13.89;40.36
28000;BME280;15328;50.860;10.562;2023-03-22T22:57:46;95676.81;;;13.85;40.16
28000;BME280;15328;50.860;10.562;2023-03-22T23:02:46;95678.31;;;13.71;40.57
28000;BME280;15328;50.860;10.562;2023-03-22T23:07:46;95676.38;;;13.67;40.72
28000;BME280;15328;50.860;10.562;2023-03-22T23:12:48;95663.56;;;13.69;41.11
28000;BME280;15328;50.860;10.562;2023-03-22T23:17:48;95663.72;;;13.52;41.65
28000;BME280;15328;50.860;10.562;2023-03-22T23:22:50;95651.28;;;13.68;41.05
28000;BME280;15328;50.860;10.562;2023-03-22T23:27:50;95634.59;;;13.50;41.01
28000;BME280;15328;50.860;10.562;2023-03-22T23:32:50;95618.00;;;13.48;41.90
28000;BME280;15328;50.860;10.562;2023-03-22T23:37:57;95613.22;;;13.50;41.62
28000;BME280;15328;50.860;10.562;2023-03-22T23:42:59;95609.69;;;13.45;41.80
28000;BME280;15328;50.860;10.562;2023-03-22T23:47:59;95603.84;;;13.48;41.66
28000;BME280;15328;50.860;10.562;2023-03-22T23:53:00;95608.41;;;13.52;42.04
28000;BME280;15328;50.860;10.562;2023-03-22T23:58:01;95600.56;;;13.41;42.08
